createdAt,value
2017-06-08T00:00:07.985Z,0
2017-06-08T00:00:48.494Z,0
2017-06-08T00:01:28.949Z,0
2017-06-08T00:02:09.458Z,0
2017-06-08T00:02:49.957Z,0
2017-06-08T00:03:30.474Z,0
2017-06-08T00:04:10.969Z,0
2017-06-08T00:04:51.647Z,0
2017-06-08T00:05:32.133Z,0
2017-06-08T00:06:12.648Z,0
2017-06-08T00:06:53.130Z,0
2017-06-08T00:07:33.631Z,0
2017-06-08T00:08:14.144Z,0
2017-06-08T00:08:54.641Z,0
2017-06-08T00:09:35.134Z,0
2017-06-08T00:10:15.642Z,0
2017-06-08T00:10:56.147Z,0
2017-06-08T00:11:36.639Z,0
2017-06-08T00:12:17.129Z,0
2017-06-08T00:12:57.613Z,0
2017-06-08T00:13:38.118Z,0
2017-06-08T00:14:18.603Z,0
2017-06-08T00:14:59.084Z,0
2017-06-08T00:15:39.597Z,0
2017-06-08T00:16:20.062Z,0
2017-06-08T00:17:00.590Z,0
2017-06-08T00:17:41.098Z,0
2017-06-08T00:18:21.587Z,0
2017-06-08T00:19:02.056Z,0
2017-06-08T00:19:42.565Z,0
2017-06-08T00:20:23.039Z,0
2017-06-08T00:21:03.572Z,0
2017-06-08T00:21:44.057Z,0
2017-06-08T00:22:24.546Z,0
2017-06-08T00:23:05.033Z,0
2017-06-08T00:23:45.533Z,0
2017-06-08T00:24:26.027Z,0
2017-06-08T00:25:06.511Z,0
2017-06-08T00:25:47.018Z,0
2017-06-08T00:26:27.500Z,0
2017-06-08T00:27:07.969Z,0
2017-06-08T00:27:48.466Z,0
2017-06-08T00:28:28.955Z,0
2017-06-08T00:29:09.442Z,0
2017-06-08T00:29:49.944Z,0
2017-06-08T00:30:30.422Z,0
2017-06-08T00:31:10.899Z,0
2017-06-08T00:31:51.420Z,0
2017-06-08T00:32:31.873Z,0
2017-06-08T00:33:12.375Z,0
2017-06-08T00:33:52.888Z,0
2017-06-08T00:34:33.324Z,0
2017-06-08T00:35:13.820Z,0
2017-06-08T00:35:54.288Z,0
2017-06-08T00:36:34.774Z,0
2017-06-08T00:37:15.259Z,0
2017-06-08T00:37:55.810Z,0
2017-06-08T00:38:36.311Z,0
2017-06-08T00:39:16.805Z,0
2017-06-08T00:39:57.325Z,0
2017-06-08T00:40:37.825Z,0
2017-06-08T00:41:18.352Z,0
2017-06-08T00:41:58.841Z,0
2017-06-08T00:42:39.353Z,0
2017-06-08T00:43:19.828Z,0
2017-06-08T00:44:00.309Z,0
2017-06-08T00:44:40.815Z,0
2017-06-08T00:45:21.332Z,0
2017-06-08T00:46:01.851Z,0
2017-06-08T00:46:42.350Z,0
2017-06-08T00:47:22.840Z,0
2017-06-08T00:48:03.362Z,0
2017-06-08T00:48:43.865Z,0
2017-06-08T00:49:24.322Z,0
2017-06-08T00:50:04.863Z,0
2017-06-08T00:50:45.358Z,0
2017-06-08T00:51:25.831Z,0
2017-06-08T00:52:06.362Z,0
2017-06-08T00:52:46.827Z,0
2017-06-08T00:53:27.282Z,0
2017-06-08T00:54:07.767Z,0
2017-06-08T00:54:48.275Z,0
2017-06-08T00:55:28.886Z,0
2017-06-08T00:56:09.448Z,0
2017-06-08T00:56:49.908Z,0
2017-06-08T00:57:30.402Z,0
2017-06-08T00:58:11.065Z,0
2017-06-08T00:58:51.559Z,0
2017-06-08T00:59:32.084Z,0
2017-06-08T01:00:12.544Z,0
2017-06-08T01:00:53.013Z,0
2017-06-08T01:01:33.565Z,0
2017-06-08T01:02:14.034Z,0
2017-06-08T01:02:54.564Z,0
2017-06-08T01:03:35.036Z,0
2017-06-08T01:04:15.566Z,0
2017-06-08T01:04:56.047Z,0
2017-06-08T01:05:36.522Z,0
2017-06-08T01:06:17.033Z,0
2017-06-08T01:06:57.575Z,0
2017-06-08T01:07:38.049Z,0
2017-06-08T01:08:18.518Z,0
2017-06-08T01:08:59.034Z,0
2017-06-08T01:09:39.516Z,0
2017-06-08T01:10:20.045Z,0
2017-06-08T01:11:00.511Z,0
2017-06-08T01:11:41.009Z,0
2017-06-08T01:12:21.485Z,0
2017-06-08T01:13:02.005Z,0
2017-06-08T01:13:42.499Z,0
2017-06-08T01:14:22.986Z,0
2017-06-08T01:15:03.427Z,0
2017-06-08T01:15:43.940Z,0
2017-06-08T01:16:24.450Z,0
2017-06-08T01:17:04.912Z,0
2017-06-08T01:17:45.411Z,0
2017-06-08T01:18:25.909Z,0
2017-06-08T01:19:06.403Z,0
2017-06-08T01:19:46.904Z,0
2017-06-08T01:20:27.402Z,0
2017-06-08T01:21:07.885Z,0
2017-06-08T01:21:48.359Z,0
2017-06-08T01:22:28.883Z,0
2017-06-08T01:23:09.427Z,0
2017-06-08T01:23:49.929Z,0
2017-06-08T01:24:30.417Z,0
2017-06-08T01:25:10.923Z,0
2017-06-08T01:25:51.386Z,0
2017-06-08T01:26:31.888Z,0
2017-06-08T01:27:12.384Z,0
2017-06-08T01:27:52.880Z,0
2017-06-08T01:28:33.376Z,0
2017-06-08T01:29:13.859Z,0
2017-06-08T01:29:54.392Z,0
2017-06-08T01:30:34.852Z,0
2017-06-08T01:31:15.351Z,0
2017-06-08T01:31:55.886Z,0
2017-06-08T01:32:36.376Z,0
2017-06-08T01:33:16.837Z,0
2017-06-08T01:33:57.387Z,0
2017-06-08T01:34:37.829Z,0
2017-06-08T01:35:18.327Z,0
2017-06-08T01:35:58.871Z,0
2017-06-08T01:36:39.359Z,0
2017-06-08T01:37:19.858Z,0
2017-06-08T01:38:00.306Z,0
2017-06-08T01:38:40.799Z,0
2017-06-08T01:39:21.295Z,0
2017-06-08T01:40:01.784Z,0
2017-06-08T01:40:42.315Z,0
2017-06-08T01:41:22.820Z,0
2017-06-08T01:42:03.281Z,0
2017-06-08T01:42:43.782Z,0
2017-06-08T01:43:24.278Z,0
2017-06-08T01:44:04.775Z,0
2017-06-08T01:44:45.248Z,0
2017-06-08T01:45:25.751Z,0
2017-06-08T01:46:06.249Z,0
2017-06-08T01:46:46.703Z,0
2017-06-08T01:47:27.143Z,0
2017-06-08T01:48:07.671Z,0
2017-06-08T01:48:48.128Z,0
2017-06-08T01:49:28.631Z,0
2017-06-08T01:50:09.165Z,0
2017-06-08T01:50:49.621Z,0
2017-06-08T01:51:30.175Z,0
2017-06-08T01:52:10.616Z,0
2017-06-08T01:52:51.160Z,0
2017-06-08T01:53:31.608Z,0
2017-06-08T01:54:12.101Z,0
2017-06-08T01:54:52.602Z,0
2017-06-08T01:55:33.086Z,0
2017-06-08T01:56:13.564Z,0
2017-06-08T01:56:54.064Z,0
2017-06-08T01:57:34.559Z,0
2017-06-08T01:58:15.061Z,0
2017-06-08T01:58:55.516Z,0
2017-06-08T01:59:36.026Z,0
2017-06-08T02:00:16.488Z,0
2017-06-08T02:00:57.032Z,0
2017-06-08T02:01:37.532Z,0
2017-06-08T02:02:17.998Z,0
2017-06-08T02:02:58.476Z,0
2017-06-08T02:03:38.957Z,0
2017-06-08T02:04:19.474Z,0
2017-06-08T02:05:00.016Z,0
2017-06-08T02:05:40.495Z,0
2017-06-08T02:06:20.965Z,0
2017-06-08T02:07:01.499Z,0
2017-06-08T02:07:42.052Z,0
2017-06-08T02:08:22.555Z,0
2017-06-08T02:09:03.066Z,0
2017-06-08T02:09:43.585Z,0
2017-06-08T02:10:24.069Z,0
2017-06-08T02:11:04.575Z,0
2017-06-08T02:11:45.056Z,0
2017-06-08T02:12:25.520Z,0
2017-06-08T02:13:06.059Z,0
2017-06-08T02:13:46.532Z,0
2017-06-08T02:14:27.037Z,0
2017-06-08T02:15:07.537Z,0
2017-06-08T02:15:48.057Z,0
2017-06-08T02:16:28.542Z,0
2017-06-08T02:17:09.619Z,0
2017-06-08T02:17:50.118Z,0
2017-06-08T02:18:30.571Z,0
2017-06-08T02:19:11.054Z,0
2017-06-08T02:19:51.555Z,0
2017-06-08T02:20:32.042Z,0
2017-06-08T02:21:12.532Z,0
2017-06-08T02:21:53.035Z,0
2017-06-08T02:22:33.556Z,0
2017-06-08T02:23:14.065Z,0
2017-06-08T02:23:54.636Z,0
2017-06-08T02:24:35.079Z,0
2017-06-08T02:25:15.589Z,0
2017-06-08T02:25:56.107Z,0
2017-06-08T02:26:36.585Z,0
2017-06-08T02:27:17.078Z,0
2017-06-08T02:27:57.596Z,0
2017-06-08T02:28:38.073Z,0
2017-06-08T02:29:18.568Z,0
2017-06-08T02:29:59.081Z,0
2017-06-08T02:30:39.606Z,0
2017-06-08T02:31:20.103Z,0
2017-06-08T02:32:00.640Z,0
2017-06-08T02:32:41.136Z,0
2017-06-08T02:33:21.640Z,0
2017-06-08T02:34:02.159Z,0
2017-06-08T02:34:42.685Z,0
2017-06-08T02:35:23.198Z,0
2017-06-08T02:36:03.734Z,0
2017-06-08T02:36:44.265Z,0
2017-06-08T02:37:24.779Z,0
2017-06-08T02:39:58.343Z,0
2017-06-08T02:40:38.865Z,0
2017-06-08T02:41:19.372Z,0
2017-06-08T02:41:59.890Z,0
2017-06-08T02:42:40.416Z,0
2017-06-08T02:43:20.921Z,0
2017-06-08T02:44:01.437Z,0
2017-06-08T02:44:41.957Z,0
2017-06-08T02:45:22.472Z,0
2017-06-08T02:46:02.992Z,0
2017-06-08T02:46:43.496Z,0
2017-06-08T02:47:24.020Z,0
2017-06-08T02:48:04.530Z,0
2017-06-08T02:48:45.030Z,0
2017-06-08T02:49:25.550Z,0
2017-06-08T02:50:06.063Z,0
2017-06-08T02:50:46.587Z,0
2017-06-08T02:51:27.074Z,0
2017-06-08T02:52:07.561Z,0
2017-06-08T02:52:48.086Z,0
2017-06-08T02:53:28.577Z,0
2017-06-08T02:54:09.084Z,0
2017-06-08T02:54:49.595Z,0
2017-06-08T02:55:30.112Z,0
2017-06-08T02:56:10.627Z,0
2017-06-08T02:56:51.145Z,0
2017-06-08T02:57:31.747Z,0
2017-06-08T02:58:12.245Z,0
2017-06-08T02:58:52.759Z,0
2017-06-08T02:59:33.271Z,0
2017-06-08T03:00:13.777Z,0
2017-06-08T03:00:54.285Z,0
2017-06-08T03:01:34.832Z,0
2017-06-08T03:02:15.328Z,0
2017-06-08T03:02:55.803Z,0
2017-06-08T03:03:36.309Z,0
2017-06-08T03:04:16.831Z,0
2017-06-08T03:04:57.316Z,0
2017-06-08T03:05:37.840Z,0
2017-06-08T03:06:18.351Z,0
2017-06-08T03:06:58.864Z,0
2017-06-08T03:07:39.399Z,0
2017-06-08T03:08:19.924Z,0
2017-06-08T03:09:00.441Z,0
2017-06-08T03:09:40.947Z,0
2017-06-08T03:10:21.436Z,0
2017-06-08T03:11:01.974Z,0
2017-06-08T03:11:42.507Z,0
2017-06-08T03:12:22.983Z,0
2017-06-08T03:13:03.594Z,0
2017-06-08T03:13:44.122Z,0
2017-06-08T03:14:24.620Z,0
2017-06-08T03:15:05.137Z,0
2017-06-08T03:15:45.677Z,0
2017-06-08T03:16:26.185Z,0
2017-06-08T03:17:06.690Z,0
2017-06-08T03:17:47.224Z,0
2017-06-08T03:18:27.684Z,0
2017-06-08T03:19:08.211Z,0
2017-06-08T03:19:48.645Z,0
2017-06-08T03:20:29.143Z,0
2017-06-08T03:21:09.618Z,0
2017-06-08T03:21:50.163Z,0
2017-06-08T03:22:30.686Z,0
2017-06-08T03:23:11.200Z,0
2017-06-08T03:23:51.684Z,0
2017-06-08T03:24:32.157Z,0
2017-06-08T03:25:12.653Z,0
2017-06-08T03:25:53.146Z,0
2017-06-08T03:26:33.682Z,0
2017-06-08T03:27:14.171Z,0
2017-06-08T03:27:54.703Z,0
2017-06-08T03:28:35.213Z,5
2017-06-08T03:29:15.714Z,5
2017-06-08T03:29:56.233Z,5
2017-06-08T03:30:36.723Z,5
2017-06-08T03:31:17.249Z,5
2017-06-08T03:31:57.763Z,5
2017-06-08T03:32:38.297Z,5
2017-06-08T03:33:18.777Z,5
2017-06-08T03:33:59.307Z,5
2017-06-08T03:34:39.807Z,5
2017-06-08T03:35:20.329Z,5
2017-06-08T03:36:00.885Z,5
2017-06-08T03:36:41.363Z,5
2017-06-08T03:37:21.869Z,5
2017-06-08T03:38:02.377Z,5
2017-06-08T03:38:42.904Z,5
2017-06-08T03:39:23.432Z,5
2017-06-08T03:40:03.954Z,5
2017-06-08T03:40:44.471Z,5
2017-06-08T03:43:22.664Z,10
2017-06-08T03:44:03.191Z,10
2017-06-08T03:44:43.689Z,10
2017-06-08T03:45:24.239Z,10
2017-06-08T03:46:04.758Z,10
2017-06-08T03:46:45.283Z,10
2017-06-08T03:47:25.790Z,10
2017-06-08T03:48:06.316Z,10
2017-06-08T03:48:46.843Z,10
2017-06-08T03:49:27.367Z,10
2017-06-08T03:50:07.888Z,15
2017-06-08T03:50:48.407Z,15
2017-06-08T03:51:28.925Z,15
2017-06-08T03:52:09.432Z,15
2017-06-08T03:52:49.952Z,15
2017-06-08T03:53:30.470Z,15
2017-06-08T03:54:10.989Z,20
2017-06-08T03:54:51.508Z,20
2017-06-08T03:55:32.005Z,20
2017-06-08T03:56:12.506Z,20
2017-06-08T03:56:53.016Z,25
2017-06-08T03:57:33.532Z,25
2017-06-08T03:58:14.064Z,25
2017-06-08T03:58:54.568Z,25
2017-06-08T03:59:35.080Z,30
2017-06-08T04:00:15.633Z,30
2017-06-08T04:00:56.087Z,30
2017-06-08T04:01:36.598Z,30
2017-06-08T04:02:17.133Z,30
2017-06-08T04:02:57.648Z,30
2017-06-08T04:03:38.140Z,35
2017-06-08T04:04:18.679Z,40
2017-06-08T04:04:59.159Z,40
2017-06-08T04:05:39.689Z,35
2017-06-08T04:06:20.208Z,30
2017-06-08T04:07:00.740Z,35
2017-06-08T04:07:41.253Z,40
2017-06-08T04:08:21.771Z,45
2017-06-08T04:09:02.281Z,40
2017-06-08T04:09:42.796Z,35
2017-06-08T04:10:23.299Z,35
2017-06-08T04:11:03.815Z,35
2017-06-08T04:11:44.356Z,35
2017-06-08T04:12:24.872Z,40
2017-06-08T04:13:05.368Z,40
2017-06-08T04:13:45.864Z,40
2017-06-08T04:14:26.369Z,40
2017-06-08T04:15:06.886Z,45
2017-06-08T04:15:47.445Z,45
2017-06-08T04:16:27.929Z,45
2017-06-08T04:17:08.398Z,50
2017-06-08T04:17:48.902Z,50
2017-06-08T04:18:29.422Z,50
2017-06-08T04:19:09.935Z,55
2017-06-08T04:19:50.455Z,55
2017-06-08T04:20:30.992Z,55
2017-06-08T04:21:11.502Z,55
2017-06-08T04:21:52.006Z,55
2017-06-08T04:22:32.548Z,55
2017-06-08T04:23:13.041Z,55
2017-06-08T04:23:53.509Z,55
2017-06-08T04:24:34.018Z,60
2017-06-08T04:25:14.528Z,60
2017-06-08T04:25:55.047Z,65
2017-06-08T04:26:35.568Z,65
2017-06-08T04:27:16.064Z,65
2017-06-08T04:27:56.579Z,65
2017-06-08T04:28:37.098Z,65
2017-06-08T04:29:17.613Z,70
2017-06-08T04:29:58.129Z,70
2017-06-08T04:30:38.618Z,80
2017-06-08T04:31:19.139Z,80
2017-06-08T04:31:59.640Z,80
2017-06-08T04:32:40.147Z,75
2017-06-08T04:33:20.653Z,75
2017-06-08T04:34:01.222Z,80
2017-06-08T04:34:41.740Z,80
2017-06-08T04:35:22.202Z,90
2017-06-08T04:36:02.732Z,95
2017-06-08T04:36:43.241Z,115
2017-06-08T04:37:23.720Z,175
2017-06-08T04:38:04.237Z,305
2017-06-08T04:38:44.758Z,475
2017-06-08T04:39:25.218Z,445
2017-06-08T04:40:05.778Z,310
2017-06-08T04:40:46.276Z,145
2017-06-08T04:41:26.764Z,85
2017-06-08T04:42:07.228Z,85
2017-06-08T04:42:47.753Z,95
2017-06-08T04:43:28.280Z,100
2017-06-08T04:44:08.798Z,105
2017-06-08T04:44:49.312Z,100
2017-06-08T04:45:29.844Z,95
2017-06-08T04:46:10.348Z,85
2017-06-08T04:46:50.862Z,85
2017-06-08T04:47:31.401Z,85
2017-06-08T04:48:11.879Z,85
2017-06-08T04:48:52.390Z,85
2017-06-08T04:49:32.856Z,80
2017-06-08T04:50:13.346Z,80
2017-06-08T04:50:53.845Z,75
2017-06-08T04:51:34.306Z,80
2017-06-08T04:52:14.770Z,95
2017-06-08T04:52:55.282Z,70
2017-06-08T04:53:35.797Z,75
2017-06-08T04:54:16.298Z,75
2017-06-08T04:54:56.790Z,75
2017-06-08T04:55:37.304Z,80
2017-06-08T04:56:17.847Z,80
2017-06-08T04:56:58.420Z,85
2017-06-08T04:57:38.864Z,85
2017-06-08T04:58:19.371Z,90
2017-06-08T04:58:59.874Z,90
2017-06-08T04:59:40.633Z,90
2017-06-08T05:00:21.202Z,90
2017-06-08T05:01:02.175Z,95
2017-06-08T05:01:42.634Z,95
2017-06-08T05:02:23.143Z,90
2017-06-08T05:03:03.975Z,90
2017-06-08T05:03:44.709Z,85
2017-06-08T05:04:26.122Z,85
2017-06-08T05:05:06.500Z,80
2017-06-08T05:05:46.962Z,80
2017-06-08T05:06:27.451Z,80
2017-06-08T05:07:07.932Z,85
2017-06-08T05:07:49.246Z,85
2017-06-08T05:08:29.785Z,90
2017-06-08T05:09:10.271Z,90
2017-06-08T05:09:50.787Z,95
2017-06-08T05:10:31.248Z,95
2017-06-08T05:11:11.740Z,95
2017-06-08T05:11:52.204Z,95
2017-06-08T05:12:32.717Z,95
2017-06-08T05:13:13.229Z,100
2017-06-08T05:13:53.757Z,100
2017-06-08T05:14:34.249Z,95
2017-06-08T05:15:14.787Z,95
2017-06-08T05:15:55.236Z,95
2017-06-08T05:16:35.701Z,100
2017-06-08T05:17:16.180Z,105
2017-06-08T05:17:56.722Z,100
2017-06-08T05:18:37.174Z,105
2017-06-08T05:19:17.647Z,105
2017-06-08T05:19:58.209Z,110
2017-06-08T05:20:38.825Z,100
2017-06-08T05:21:19.291Z,100
2017-06-08T05:21:59.782Z,95
2017-06-08T05:22:40.294Z,90
2017-06-08T05:23:20.826Z,80
2017-06-08T05:24:01.333Z,75
2017-06-08T05:26:19.201Z,65
2017-06-08T05:26:59.712Z,60
2017-06-08T05:27:40.269Z,60
2017-06-08T05:28:20.780Z,60
2017-06-08T05:29:01.260Z,60
2017-06-08T05:29:41.776Z,55
2017-06-08T05:30:22.278Z,55
2017-06-08T05:31:02.744Z,55
2017-06-08T05:31:43.251Z,55
2017-06-08T05:32:23.761Z,55
2017-06-08T05:33:04.252Z,55
2017-06-08T05:33:44.790Z,55
2017-06-08T05:34:25.258Z,60
2017-06-08T05:35:05.808Z,55
2017-06-08T05:35:46.391Z,60
2017-06-08T05:36:26.803Z,60
2017-06-08T05:37:07.265Z,60
2017-06-08T05:37:47.758Z,60
2017-06-08T05:38:28.277Z,60
2017-06-08T05:39:08.703Z,60
2017-06-08T05:39:49.340Z,60
2017-06-08T05:40:29.778Z,65
2017-06-08T05:41:10.228Z,65
2017-06-08T05:41:50.802Z,70
2017-06-08T05:42:31.205Z,65
2017-06-08T05:43:11.768Z,65
2017-06-08T05:43:52.221Z,70
2017-06-08T05:44:33.646Z,70
2017-06-08T05:45:15.110Z,75
2017-06-08T05:45:55.645Z,75
2017-06-08T05:46:36.107Z,75
2017-06-08T05:47:16.747Z,80
2017-06-08T05:47:57.289Z,80
2017-06-08T05:48:37.772Z,80
2017-06-08T05:49:18.374Z,85
2017-06-08T05:49:58.756Z,90
2017-06-08T05:50:39.246Z,90
2017-06-08T05:51:19.714Z,90
2017-06-08T05:52:00.227Z,95
2017-06-08T05:52:40.870Z,100
2017-06-08T05:53:22.119Z,100
2017-06-08T05:54:02.661Z,105
2017-06-08T05:54:43.122Z,105
2017-06-08T05:55:23.672Z,110
2017-06-08T05:56:04.120Z,105
2017-06-08T05:56:44.647Z,105
2017-06-08T05:57:25.116Z,105
2017-06-08T05:58:05.613Z,110
2017-06-08T05:58:46.144Z,110
2017-06-08T05:59:26.594Z,140
2017-06-08T06:00:07.093Z,130
2017-06-08T06:00:47.678Z,120
2017-06-08T06:01:28.102Z,135
2017-06-08T06:02:08.621Z,125
2017-06-08T06:02:49.074Z,115
2017-06-08T06:03:29.961Z,120
2017-06-08T06:04:10.392Z,125
2017-06-08T06:04:50.898Z,135
2017-06-08T06:05:31.557Z,135
2017-06-08T06:06:12.050Z,140
2017-06-08T06:06:52.550Z,160
2017-06-08T06:07:33.065Z,135
2017-06-08T06:08:13.564Z,140
2017-06-08T06:08:54.051Z,135
2017-06-08T06:09:34.558Z,135
2017-06-08T06:10:15.011Z,140
2017-06-08T06:10:55.502Z,110
2017-06-08T06:11:36.000Z,115
2017-06-08T06:12:16.534Z,115
2017-06-08T06:12:56.973Z,125
2017-06-08T06:13:37.454Z,105
2017-06-08T06:14:17.967Z,110
2017-06-08T06:14:58.644Z,105
2017-06-08T06:15:39.162Z,100
2017-06-08T06:16:19.616Z,95
2017-06-08T06:17:00.058Z,95
2017-06-08T06:17:40.572Z,95
2017-06-08T06:18:21.075Z,95
2017-06-08T06:19:01.563Z,95
2017-06-08T06:19:42.059Z,95
2017-06-08T06:20:22.550Z,90
2017-06-08T06:21:02.999Z,90
2017-06-08T06:21:43.519Z,90
2017-06-08T06:22:23.993Z,95
2017-06-08T06:23:04.538Z,95
2017-06-08T06:23:44.995Z,95
2017-06-08T06:24:25.502Z,95
2017-06-08T06:25:06.051Z,100
2017-06-08T06:25:46.516Z,95
2017-06-08T06:26:27.000Z,100
2017-06-08T06:27:07.469Z,110
2017-06-08T06:27:47.940Z,105
2017-06-08T06:28:28.696Z,120
2017-06-08T06:29:09.125Z,130
2017-06-08T06:29:49.667Z,115
2017-06-08T06:30:29.966Z,125
2017-06-08T06:31:10.511Z,145
2017-06-08T06:31:51.120Z,115
2017-06-08T06:32:31.562Z,100
2017-06-08T06:33:12.065Z,100
2017-06-08T06:33:52.689Z,115
2017-06-08T06:34:33.194Z,125
2017-06-08T06:35:13.693Z,145
2017-06-08T06:35:54.154Z,130
2017-06-08T06:36:34.634Z,130
2017-06-08T06:37:15.149Z,165
2017-06-08T06:37:55.662Z,140
2017-06-08T06:38:36.146Z,160
2017-06-08T06:39:16.604Z,145
2017-06-08T06:39:57.153Z,140
2017-06-08T06:40:37.649Z,130
2017-06-08T06:41:18.102Z,115
2017-06-08T06:41:58.579Z,130
2017-06-08T06:42:39.133Z,150
2017-06-08T06:43:19.806Z,155
2017-06-08T06:44:00.306Z,115
2017-06-08T06:44:40.783Z,130
2017-06-08T06:45:21.273Z,115
2017-06-08T06:46:02.399Z,110
2017-06-08T06:46:42.914Z,115
2017-06-08T06:47:23.409Z,95
2017-06-08T06:48:03.985Z,95
2017-06-08T06:48:44.613Z,120
2017-06-08T06:49:25.103Z,120
2017-06-08T06:50:05.678Z,105
2017-06-08T06:50:46.178Z,120
2017-06-08T06:51:26.647Z,105
2017-06-08T06:52:07.082Z,130
2017-06-08T06:52:47.614Z,140
2017-06-08T06:53:28.177Z,140
2017-06-08T06:54:08.685Z,130
2017-06-08T06:54:49.264Z,135
2017-06-08T06:55:29.722Z,130
2017-06-08T06:56:10.195Z,130
2017-06-08T06:56:50.716Z,135
2017-06-08T06:57:31.263Z,140
2017-06-08T06:58:11.744Z,140
2017-06-08T06:58:52.252Z,145
2017-06-08T06:59:32.726Z,145
2017-06-08T07:00:13.234Z,145
2017-06-08T07:00:53.675Z,145
2017-06-08T07:01:34.215Z,145
2017-06-08T07:02:14.898Z,145
2017-06-08T07:02:55.397Z,140
2017-06-08T07:03:35.919Z,140
2017-06-08T07:04:16.401Z,140
2017-06-08T07:04:56.892Z,145
2017-06-08T07:05:37.424Z,145
2017-06-08T07:06:17.904Z,145
2017-06-08T07:06:58.453Z,140
2017-06-08T07:07:38.905Z,135
2017-06-08T07:08:19.366Z,135
2017-06-08T07:08:59.870Z,130
2017-06-08T07:09:40.399Z,135
2017-06-08T07:10:20.916Z,125
2017-06-08T07:11:01.370Z,130
2017-06-08T07:11:41.859Z,130
2017-06-08T07:12:22.344Z,130
2017-06-08T07:13:02.859Z,120
2017-06-08T07:13:43.352Z,120
2017-06-08T07:14:23.905Z,120
2017-06-08T07:15:04.354Z,125
2017-06-08T07:15:44.859Z,125
2017-06-08T07:16:25.356Z,125
2017-06-08T07:17:05.840Z,120
2017-06-08T07:17:46.300Z,120
2017-06-08T07:18:26.820Z,120
2017-06-08T07:19:07.284Z,120
2017-06-08T07:19:47.752Z,125
2017-06-08T07:20:28.298Z,125
2017-06-08T07:21:08.742Z,130
2017-06-08T07:21:49.256Z,130
2017-06-08T07:22:29.744Z,130
2017-06-08T07:23:10.233Z,125
2017-06-08T07:23:50.702Z,120
2017-06-08T07:24:31.223Z,120
2017-06-08T07:25:11.718Z,115
2017-06-08T07:25:52.248Z,115
2017-06-08T07:26:32.890Z,115
2017-06-08T07:27:13.225Z,115
2017-06-08T07:27:53.695Z,115
2017-06-08T07:28:34.203Z,115
2017-06-08T07:29:14.675Z,120
2017-06-08T07:29:55.217Z,125
2017-06-08T07:30:35.675Z,125
2017-06-08T07:31:16.153Z,120
2017-06-08T07:31:56.621Z,120
2017-06-08T07:32:37.204Z,120
2017-06-08T07:33:17.682Z,130
2017-06-08T07:33:58.308Z,130
2017-06-08T07:34:38.806Z,125
2017-06-08T07:35:19.275Z,125
2017-06-08T07:35:59.766Z,130
2017-06-08T07:36:40.270Z,135
2017-06-08T07:37:20.777Z,135
2017-06-08T07:38:01.280Z,130
2017-06-08T07:38:41.785Z,125
2017-06-08T07:39:22.306Z,125
2017-06-08T07:40:02.819Z,115
2017-06-08T07:40:43.326Z,115
2017-06-08T07:41:23.793Z,125
2017-06-08T07:42:04.315Z,125
2017-06-08T07:42:44.815Z,125
2017-06-08T07:43:25.535Z,125
2017-06-08T07:44:06.080Z,120
2017-06-08T07:44:46.532Z,125
2017-06-08T07:45:27.081Z,115
2017-06-08T07:46:07.487Z,115
2017-06-08T07:46:48.151Z,120
2017-06-08T07:47:28.657Z,115
2017-06-08T07:48:09.154Z,115
2017-06-08T07:48:49.626Z,115
2017-06-08T07:49:30.129Z,115
2017-06-08T07:50:10.649Z,115
2017-06-08T07:50:51.093Z,115
2017-06-08T07:51:31.582Z,115
2017-06-08T07:52:12.387Z,115
2017-06-08T07:52:52.620Z,115
2017-06-08T07:53:33.116Z,115
2017-06-08T07:54:13.557Z,110
2017-06-08T07:54:54.098Z,115
2017-06-08T07:55:34.633Z,115
2017-06-08T07:56:15.104Z,115
2017-06-08T07:56:55.680Z,115
2017-06-08T07:57:36.094Z,115
2017-06-08T07:58:16.622Z,110
2017-06-08T07:58:57.116Z,115
2017-06-08T07:59:37.584Z,110
2017-06-08T08:00:18.272Z,110
2017-06-08T08:00:58.758Z,110
2017-06-08T08:01:39.274Z,110
2017-06-08T08:02:19.755Z,110
2017-06-08T08:03:00.236Z,110
2017-06-08T08:03:40.715Z,105
2017-06-08T08:04:21.214Z,105
2017-06-08T08:05:01.711Z,105
2017-06-08T08:05:42.311Z,100
2017-06-08T08:06:22.817Z,105
2017-06-08T08:07:03.321Z,105
2017-06-08T08:07:43.851Z,105
2017-06-08T08:08:24.355Z,105
2017-06-08T08:09:04.872Z,105
2017-06-08T08:09:45.343Z,100
2017-06-08T08:10:25.832Z,105
2017-06-08T08:11:06.331Z,100
2017-06-08T08:11:46.825Z,100
2017-06-08T08:12:27.343Z,100
2017-06-08T08:13:07.799Z,100
2017-06-08T08:13:48.368Z,100
2017-06-08T08:14:28.864Z,105
2017-06-08T08:15:09.336Z,100
2017-06-08T08:15:49.937Z,90
2017-06-08T08:16:30.331Z,100
2017-06-08T08:17:10.820Z,95
2017-06-08T08:17:51.351Z,95
2017-06-08T08:18:31.835Z,95
2017-06-08T08:19:12.407Z,90
2017-06-08T08:19:52.883Z,90
2017-06-08T08:20:33.374Z,90
2017-06-08T08:21:13.868Z,90
2017-06-08T08:21:54.368Z,90
2017-06-08T08:22:34.880Z,90
2017-06-08T08:23:15.347Z,90
2017-06-08T08:23:55.970Z,90
2017-06-08T08:24:36.484Z,90
2017-06-08T08:25:16.999Z,85
2017-06-08T08:25:57.463Z,80
2017-06-08T08:26:37.967Z,85
2017-06-08T08:27:18.459Z,80
2017-06-08T08:27:58.967Z,80
2017-06-08T08:28:39.447Z,75
2017-06-08T08:29:19.930Z,75
2017-06-08T08:30:00.449Z,75
2017-06-08T08:30:40.955Z,75
2017-06-08T08:31:21.450Z,75
2017-06-08T08:32:02.007Z,75
2017-06-08T08:32:42.428Z,75
2017-06-08T08:33:22.927Z,75
2017-06-08T08:34:03.471Z,75
2017-06-08T08:34:43.970Z,75
2017-06-08T08:35:24.453Z,75
2017-06-08T08:36:04.906Z,75
2017-06-08T08:36:45.379Z,75
2017-06-08T08:37:25.925Z,70
2017-06-08T08:38:06.436Z,75
2017-06-08T08:38:46.916Z,70
2017-06-08T08:39:27.394Z,70
2017-06-08T08:40:07.906Z,75
2017-06-08T08:40:48.410Z,75
2017-06-08T08:41:28.925Z,75
2017-06-08T08:42:09.444Z,75
2017-06-08T08:42:49.950Z,75
2017-06-08T08:43:30.712Z,75
2017-06-08T08:44:11.028Z,75
2017-06-08T08:44:51.510Z,75
2017-06-08T08:45:32.037Z,75
2017-06-08T08:46:12.512Z,75
2017-06-08T08:46:53.008Z,75
2017-06-08T08:47:33.512Z,80
2017-06-08T08:48:14.040Z,80
2017-06-08T08:48:54.558Z,80
2017-06-08T08:49:35.036Z,80
2017-06-08T08:50:15.511Z,80
2017-06-08T08:50:56.015Z,80
2017-06-08T08:51:36.677Z,80
2017-06-08T08:52:17.007Z,80
2017-06-08T08:52:57.498Z,80
2017-06-08T08:53:37.999Z,80
2017-06-08T08:54:18.529Z,80
2017-06-08T08:54:59.099Z,80
2017-06-08T08:55:39.503Z,80
2017-06-08T08:56:20.026Z,80
2017-06-08T08:57:00.554Z,80
2017-06-08T08:57:41.046Z,85
2017-06-08T08:58:21.496Z,85
2017-06-08T08:59:02.012Z,85
2017-06-08T08:59:42.499Z,85
2017-06-08T09:00:23.014Z,85
2017-06-08T09:01:03.529Z,90
2017-06-08T09:01:44.065Z,90
2017-06-08T09:02:24.502Z,90
2017-06-08T09:03:05.003Z,90
2017-06-08T09:03:45.491Z,95
2017-06-08T09:04:25.957Z,95
2017-06-08T09:05:06.458Z,95
2017-06-08T09:05:46.952Z,95
2017-06-08T09:06:27.440Z,100
2017-06-08T09:07:07.945Z,95
2017-06-08T09:07:48.542Z,95
2017-06-08T09:08:28.944Z,95
2017-06-08T09:09:09.490Z,95
2017-06-08T09:09:49.978Z,100
2017-06-08T09:10:30.493Z,100
2017-06-08T09:11:10.954Z,100
2017-06-08T09:11:51.485Z,100
2017-06-08T09:12:31.982Z,100
2017-06-08T09:13:12.487Z,100
2017-06-08T09:13:52.988Z,100
2017-06-08T09:14:33.516Z,105
2017-06-08T09:15:14.025Z,100
2017-06-08T09:15:54.494Z,100
2017-06-08T09:16:34.991Z,100
2017-06-08T09:17:15.526Z,100
2017-06-08T09:17:55.989Z,100
2017-06-08T09:18:36.470Z,100
2017-06-08T09:19:16.968Z,105
2017-06-08T09:19:57.475Z,100
2017-06-08T09:20:37.959Z,100
2017-06-08T09:21:18.478Z,105
2017-06-08T09:21:59.042Z,100
2017-06-08T09:22:39.555Z,105
2017-06-08T09:23:20.073Z,100
2017-06-08T09:24:00.549Z,100
2017-06-08T09:24:41.091Z,100
2017-06-08T09:25:21.625Z,100
2017-06-08T09:26:02.137Z,100
2017-06-08T09:26:42.594Z,100
2017-06-08T09:27:23.054Z,100
2017-06-08T09:28:03.602Z,100
2017-06-08T09:28:44.056Z,100
2017-06-08T09:29:24.549Z,100
2017-06-08T09:30:05.084Z,100
2017-06-08T09:30:45.542Z,100
2017-06-08T09:31:26.079Z,100
2017-06-08T09:32:06.594Z,100
2017-06-08T09:32:47.094Z,95
2017-06-08T09:33:27.542Z,100
2017-06-08T09:34:08.024Z,100
2017-06-08T09:34:48.542Z,100
2017-06-08T09:35:29.016Z,100
2017-06-08T09:36:09.523Z,100
2017-06-08T09:36:50.034Z,100
2017-06-08T09:37:30.526Z,100
2017-06-08T09:38:11.206Z,100
2017-06-08T09:38:51.536Z,100
2017-06-08T09:39:32.041Z,100
2017-06-08T09:40:12.557Z,100
2017-06-08T09:40:53.067Z,100
2017-06-08T09:41:33.545Z,105
2017-06-08T09:42:14.021Z,100
2017-06-08T09:42:54.528Z,100
2017-06-08T09:43:35.035Z,105
2017-06-08T09:44:15.572Z,105